DAAJ/DJG METAR and TAF weather

Enter ICAO airport designator
Station Type Date Time Source
DAAJ METAR 2019/06/20 07:00 UTC NOAA

DAAJ 200700Z 36004KT 6000 NSC 30/07 Q1018


Station Type Date Time Source
DAAJ Decoded METAR 2019/06/20 07:00 UTC NOAA

Djanet, Algeria (DAAJ) 24-33N 009-28E 1054M
Jun 20, 2019 - 03:00 AM EDT / 2019.06.20 0700 UTC
Wind: from the N (360 degrees) at 5 MPH (4 KT):0
Visibility: 3 mile(s):0
Temperature: 86 F (30 C)
Dew Point: 44 F (7 C)
Relative Humidity: 23%
Pressure (altimeter): 30.06 in. Hg (1018 hPa)
ob: DAAJ 200700Z 36004KT 6000 NSC 30/07 Q1018
cycle: 7

Station Type Date Time Source
DAAJ TAF 2019/06/20 06:33 UTC NOAA

TAF DAAJ 200500Z 2006/2106 06010KT 6000 NSC PROB30 2006/2010 4000 HZ
BECMG 2008/2011 20010KT PROB30
TEMPO 2014/2018 22015G25KT 3000 DRSA FEW040TCU
BECMG 2018/2021 06012KT

Example: see airport list